Lake Pleasant, New York
Current Conditions -  °F | °C
As of 2:35 AM on Saturday 29 Nov 2014 (Local Time) from KNY0 Reporting Station
Overcast Overcast  
Wind Chill: 18°   Ceiling: 11000
Heat Index: 18°   Visibility: 10mi
Dew Point: 13°   Wind: 3mph
Humidity: 83%   Direction: 220°SW
Pressure: 30.21"   Gusts: NA
Location:  43.47°N, 74.41°W
Report Text: KNY0 290735Z AUTO 22003KT 10SM OVC110 M08/M10 A3021 RMK AO2 T10801105
Loading
Personal Weather Stations






























Interactive Weather Map New forecast layout! Learn more

10-Day Weather Forecast

Advertisements
Track Severe Weather on mobile